Time;durP1;ratioP1;P1;durP2;ratioP2;P2;SDS_P1;SDS_P2;PMS_P1;PMS_P2;Temp;Humidity;BMP_temperature;BMP_pressure;BME280_temperature;BME280_humidity;BME280_pressure;Samples;Min_cycle;Max_cycle;Signal;HPM_P1;HPM_P2
2022/12/11 00:00:24;;;;;;;;;43.25;29.25;;;;;3.85;62.45;101153.84;2441809;28;45539;-76
2022/12/11 00:01:34;;;;;;;;;39.75;32.50;;;;;3.86;62.64;101154.69;2441073;28;45386;-76
2022/12/11 00:02:44;;;;;;;;;27.75;25.50;;;;;3.83;62.67;101148.59;2441730;28;45505;-76
2022/12/11 00:03:55;;;;;;;;;35.25;27.25;;;;;3.85;62.97;101150.34;2441555;28;45345;-76
2022/12/11 00:05:06;;;;;;;;;34.00;26.00;;;;;3.84;62.57;101141.69;2441531;28;45391;-76
2022/12/11 00:06:19;;;;;;;;;32.50;25.00;;;;;3.83;63.02;101148.59;2442678;28;44691;-76
2022/12/11 00:07:29;;;;;;;;;32.25;25.25;;;;;3.82;62.71;101146.03;2441137;28;48392;-76
2022/12/11 00:08:40;;;;;;;;;33.25;27.50;;;;;3.80;62.92;101146.00;2434998;28;44635;-76
2022/12/11 00:09:50;;;;;;;;;35.25;28.25;;;;;3.78;62.63;101145.13;2441644;28;45264;-76
2022/12/11 00:11:02;;;;;;;;;27.25;25.00;;;;;3.76;62.65;101154.66;2441094;28;45216;-76
2022/12/11 00:12:12;;;;;;;;;33.75;27.00;;;;;3.74;62.66;101147.72;2441784;28;45626;-76
2022/12/11 00:13:22;;;;;;;;;24.75;20.50;;;;;3.74;62.38;101155.53;2442204;28;45237;-76
2022/12/11 00:14:33;;;;;;;;;25.50;20.75;;;;;3.69;62.48;101143.38;2441657;28;46335;-76
2022/12/11 00:15:43;;;;;;;;;27.75;25.75;;;;;3.66;62.38;101142.50;2442012;28;45176;-76
2022/12/11 00:16:54;;;;;;;;;27.75;23.75;;;;;3.62;62.05;101139.03;2441583;28;48015;-76
2022/12/11 00:18:04;;;;;;;;;28.50;24.75;;;;;3.59;62.12;101134.69;2444155;28;44696;-76
2022/12/11 00:19:15;;;;;;;;;26.25;20.50;;;;;3.57;62.40;101135.56;2448702;28;46170;-76
2022/12/11 00:20:26;;;;;;;;;39.75;31.50;;;;;3.56;62.03;101131.22;2441470;28;45362;-76
2022/12/11 00:21:36;;;;;;;;;27.50;25.75;;;;;3.55;62.55;101132.97;2441501;28;46180;-75
2022/12/11 00:22:46;;;;;;;;;27.75;21.75;;;;;3.52;62.75;101132.94;2441630;28;44803;-76
2022/12/11 00:23:57;;;;;;;;;31.25;21.25;;;;;3.54;62.38;101138.13;2441870;28;46150;-76
2022/12/11 00:25:08;;;;;;;;;31.25;25.00;;;;;3.52;62.48;101137.28;2442501;28;44801;-76
2022/12/11 00:26:18;;;;;;;;;35.75;27.25;;;;;3.51;62.29;101128.59;2442159;28;46847;-76
2022/12/11 00:27:28;;;;;;;;;26.25;23.00;;;;;3.51;62.63;101133.78;2442079;28;45260;-76
2022/12/11 00:28:39;;;;;;;;;31.75;23.25;;;;;3.51;63.06;101123.41;2442289;28;46559;-76
2022/12/11 00:29:49;;;;;;;;;28.25;22.00;;;;;3.50;63.19;101121.69;2442140;28;45264;-76
2022/12/11 00:31:04;;;;;;;;;32.50;21.75;;;;;3.52;62.75;101119.94;2441385;28;45375;-76
2022/12/11 00:32:15;;;;;;;;;29.50;25.75;;;;;3.54;62.81;101118.22;2442375;28;45307;-76
2022/12/11 00:33:26;;;;;;;;;29.75;27.00;;;;;3.54;62.39;101110.41;2441358;28;47306;-76
2022/12/11 00:34:36;;;;;;;;;34.75;25.50;;;;;3.55;62.95;101108.69;2441386;28;45291;-76
2022/12/11 00:35:47;;;;;;;;;38.25;25.75;;;;;3.56;62.94;101105.22;2442099;28;45217;-75
2022/12/11 00:36:57;;;;;;;;;38.00;31.00;;;;;3.58;62.98;101108.72;2441153;28;44815;-76
2022/12/11 00:38:12;;;;;;;;;32.75;26.25;;;;;3.58;62.16;101106.13;2440620;28;45569;-76
2022/12/11 00:39:23;;;;;;;;;33.75;27.00;;;;;3.56;62.42;101106.09;2442328;28;45211;-76
2022/12/11 00:40:36;;;;;;;;;30.75;23.25;;;;;3.52;62.26;101104.34;2442274;28;46147;-76
2022/12/11 00:41:46;;;;;;;;;31.00;24.25;;;;;3.51;62.99;101118.19;2442378;28;45318;-75
2022/12/11 00:42:56;;;;;;;;;22.00;15.50;;;;;3.50;62.91;101111.28;2442042;28;45532;-76
2022/12/11 00:44:07;;;;;;;;;27.50;24.00;;;;;3.51;62.68;101115.59;2441390;28;45310;-75
2022/12/11 00:45:17;;;;;;;;;23.00;21.50;;;;;3.51;63.08;101110.41;2441408;28;45469;-76
2022/12/11 00:46:28;;;;;;;;;25.00;20.75;;;;;3.51;62.90;101104.38;2440098;28;45196;-76
2022/12/11 00:47:38;;;;;;;;;26.25;23.00;;;;;3.53;62.79;101110.44;2441277;28;45346;-76
2022/12/11 00:48:49;;;;;;;;;31.00;27.25;;;;;3.53;62.32;101106.06;2442111;28;45354;-76
2022/12/11 00:49:59;;;;;;;;;29.25;25.25;;;;;3.53;62.60;101106.06;2442173;28;46396;-76
2022/12/11 00:51:09;;;;;;;;;29.00;22.50;;;;;3.54;63.00;101113.03;2441946;28;44791;-75
2022/12/11 00:52:21;;;;;;;;;29.00;21.25;;;;;3.54;62.71;101118.22;2441940;28;45321;-76
2022/12/11 00:53:32;;;;;;;;;27.75;20.25;;;;;3.53;62.42;101111.28;2442166;28;45236;-75
2022/12/11 00:54:42;;;;;;;;;21.75;21.25;;;;;3.52;63.13;101111.28;2442032;28;46588;-75
2022/12/11 00:55:52;;;;;;;;;23.75;19.25;;;;;3.52;62.81;101117.34;2442179;28;45235;-76
2022/12/11 00:57:03;;;;;;;;;33.00;22.25;;;;;3.51;62.30;101123.41;2440621;28;46438;-76
2022/12/11 00:58:13;;;;;;;;;19.75;18.50;;;;;3.51;61.94;101115.59;2441105;28;45565;-76
2022/12/11 00:59:24;;;;;;;;;44.25;38.25;;;;;3.48;62.86;101110.41;2441695;28;46756;-76
2022/12/11 01:00:34;;;;;;;;;25.75;23.25;;;;;3.49;62.45;101114.72;2441921;28;45186;-75
2022/12/11 01:01:45;;;;;;;;;14.75;12.75;;;;;3.47;62.48;101109.53;2440775;28;48164;-75
2022/12/11 01:02:55;;;;;;;;;20.50;15.00;;;;;3.46;62.52;101100.00;2441504;28;45312;-75
2022/12/11 01:04:05;;;;;;;;;19.75;15.75;;;;;3.46;62.03;101106.91;2440644;28;46492;-76
2022/12/11 01:05:16;;;;;;;;;24.00;18.50;;;;;3.47;62.49;101103.47;2441220;28;45299;-75
2022/12/11 01:06:27;;;;;;;;;20.25;15.50;;;;;3.45;62.54;101100.88;2441357;28;45331;-76
2022/12/11 01:07:37;;;;;;;;;14.50;13.25;;;;;3.45;62.12;101102.59;2441484;28;45442;-76
2022/12/11 01:10:22;;;;;;;;;19.50;16.00;;;;;3.45;61.78;101100.00;2441958;28;46363;-76
2022/12/11 01:10:24;;;;;;;;;12.00;12.00;;;;;3.41;62.07;101100.88;2434482;28;45326;-75
2022/12/11 01:11:34;;;;;;;;;19.50;17.25;;;;;3.36;61.69;101096.50;2448729;28;46263;-76
2022/12/11 01:12:45;;;;;;;;;19.50;19.00;;;;;3.34;62.50;101105.16;2442564;28;45354;-76
2022/12/11 01:13:55;;;;;;;;;18.75;17.50;;;;;3.33;62.01;101087.84;2440927;28;46127;-76
2022/12/11 01:15:06;;;;;;;;;26.75;22.25;;;;;3.32;62.08;101094.78;2442137;28;45324;-76
2022/12/11 01:16:16;;;;;;;;;31.50;21.25;;;;;3.32;62.69;101099.09;2441129;28;45873;-76
2022/12/11 01:17:26;;;;;;;;;23.25;19.50;;;;;3.31;62.54;101090.41;2441124;28;44717;-76
2022/12/11 01:18:38;;;;;;;;;20.50;16.25;;;;;3.32;62.44;101088.69;2440969;28;45270;-76
2022/12/11 01:19:48;;;;;;;;;17.25;15.00;;;;;3.30;61.94;101096.50;2442136;28;45326;-76
2022/12/11 01:20:58;;;;;;;;;26.00;19.75;;;;;3.31;62.25;101102.56;2441156;28;48032;-76
2022/12/11 01:22:08;;;;;;;;;23.00;15.75;;;;;3.32;62.55;101102.56;2440716;28;44731;-76
2022/12/11 01:23:19;;;;;;;;;18.75;16.50;;;;;3.32;62.15;101096.50;2434257;28;46912;-76
2022/12/11 01:24:29;;;;;;;;;20.75;17.25;;;;;3.33;62.29;101093.91;2433312;28;44867;-76
2022/12/11 01:25:40;;;;;;;;;18.00;16.00;;;;;3.34;63.02;101079.16;2441331;28;46276;-76
2022/12/11 01:26:51;;;;;;;;;22.75;15.75;;;;;3.34;62.65;101084.38;2442024;28;44642;-76
2022/12/11 01:28:01;;;;;;;;;20.50;14.25;;;;;3.32;62.40;101076.59;2441386;28;45439;-76
2022/12/11 01:29:11;;;;;;;;;25.75;21.00;;;;;3.33;62.54;101093.03;2441769;28;45127;-76
2022/12/11 01:30:23;;;;;;;;;25.00;19.75;;;;;3.31;63.05;101087.81;2441961;28;46566;-76
2022/12/11 01:31:34;;;;;;;;;26.00;21.25;;;;;3.31;62.59;101090.41;2441178;28;45271;-75
2022/12/11 01:32:44;;;;;;;;;27.00;19.75;;;;;3.33;62.21;101095.66;2443741;28;47114;-76
2022/12/11 01:33:55;;;;;;;;;23.75;17.50;;;;;3.32;63.03;101092.16;2439661;28;45240;-76
2022/12/11 01:35:07;;;;;;;;;23.50;18.25;;;;;3.33;61.98;101091.31;2431744;28;46344;-76
2022/12/11 01:36:20;;;;;;;;;23.50;18.00;;;;;3.33;62.71;101101.72;2441030;28;44763;-75
2022/12/11 01:37:30;;;;;;;;;27.75;20.25;;;;;3.32;62.92;101101.69;2441894;28;46295;-76
2022/12/11 01:38:41;;;;;;;;;23.25;15.00;;;;;3.31;62.18;101102.56;2442060;28;45227;-75
2022/12/11 01:39:51;;;;;;;;;24.50;17.75;;;;;3.30;62.26;101099.09;2441741;28;45243;-76
2022/12/11 01:41:02;;;;;;;;;23.00;16.25;;;;;3.29;62.53;101102.53;2441931;28;45161;-76
2022/12/11 01:42:19;;;;;;;;;18.25;15.25;;;;;3.27;62.72;101099.09;2441867;28;45585;-76
2022/12/11 01:43:30;;;;;;;;;19.00;16.50;;;;;3.26;62.24;101102.53;2442006;28;45251;-76
2022/12/11 01:44:43;;;;;;;;;11.50;7.25;;;;;3.26;62.75;101107.72;2440489;28;45193;-76
2022/12/11 01:45:54;;;;;;;;;20.25;15.00;;;;;3.25;62.39;101103.41;2441653;28;45259;-76
2022/12/11 01:47:04;;;;;;;;;20.00;18.50;;;;;3.26;62.05;101107.72;2440830;28;46257;-76
2022/12/11 01:48:24;;;;;;;;;19.50;16.50;;;;;3.24;62.35;101110.31;2441513;28;45161;-76
2022/12/11 01:49:35;;;;;;;;;15.75;14.00;;;;;3.23;62.92;101107.75;2440905;28;46540;-76
2022/12/11 01:50:53;;;;;;;;;22.50;18.25;;;;;3.22;62.70;101111.19;2441437;28;45347;-76
2022/12/11 01:52:12;;;;;;;;;25.00;20.00;;;;;3.21;62.39;101106.88;2441607;28;45694;-76
2022/12/11 01:53:30;;;;;;;;;20.75;19.25;;;;;3.23;62.08;101102.53;2440332;28;45441;-76
2022/12/11 01:54:42;;;;;;;;;18.75;14.75;;;;;3.23;62.33;101107.75;2441272;28;46479;-76
2022/12/11 01:55:55;;;;;;;;;19.25;16.25;;;;;3.22;61.99;101101.66;2443092;28;45300;-76
2022/12/11 01:57:08;;;;;;;;;18.50;15.75;;;;;3.21;62.49;101109.47;2451249;28;46896;-76
2022/12/11 01:58:21;;;;;;;;;18.00;15.75;;;;;3.22;62.63;101117.25;2442478;28;44781;-76
2022/12/11 01:59:36;;;;;;;;;19.25;14.00;;;;;3.24;62.57;101106.84;2441395;28;45580;-76
2022/12/11 02:00:46;;;;;;;;;19.75;18.00;;;;;3.26;62.79;101120.72;2441931;28;45274;-75
2022/12/11 02:02:02;;;;;;;;;32.50;26.00;;;;;3.28;62.78;101113.81;2440681;28;46626;-76
2022/12/11 02:03:13;;;;;;;;;32.00;19.25;;;;;3.30;62.57;101113.81;2433864;28;45155;-76
2022/12/11 02:04:24;;;;;;;;;30.50;22.25;;;;;3.32;62.79;101106.88;2440784;28;46581;-76
2022/12/11 02:05:35;;;;;;;;;18.50;15.50;;;;;3.31;62.87;101111.22;2441954;28;44914;-76
2022/12/11 02:06:49;;;;;;;;;21.00;20.00;;;;;3.35;62.49;101112.09;2440640;28;47226;-76
2022/12/11 02:08:01;;;;;;;;;17.50;14.00;;;;;3.36;63.17;101111.22;2440051;28;45343;-76
2022/12/11 02:09:15;;;;;;;;;18.00;18.00;;;;;3.36;62.52;101100.81;2441691;28;46521;-76
2022/12/11 02:11:01;;;;;;;;;17.50;14.25;;;;;3.34;61.70;101111.22;2441608;28;44709;-76
2022/12/11 02:12:27;;;;;;;;;16.75;15.00;;;;;3.29;62.46;101106.88;2439554;28;47638;-76
2022/12/11 02:13:54;;;;;;;;;19.00;12.00;;;;;3.25;62.40;101111.19;2446899;27;45254;-76
2022/12/11 02:15:19;;;;;;;;;17.25;10.75;;;;;3.24;62.26;101112.94;2449716;27;45326;-76
2022/12/11 02:16:54;;;;;;;;;17.25;14.25;;;;;3.23;62.12;101102.53;2441711;28;45175;-76
2022/12/11 02:18:16;;;;;;;;;15.75;12.75;;;;;3.23;62.19;101102.53;2441146;28;45673;-76
2022/12/11 02:19:29;;;;;;;;;19.50;14.25;;;;;3.21;62.52;101099.91;2441322;28;45374;-76
2022/12/11 02:20:48;;;;;;;;;16.50;14.50;;;;;3.21;61.86;101099.06;2441107;28;46603;-76
2022/12/11 02:22:04;;;;;;;;;21.00;16.00;;;;;3.20;62.32;101100.78;2440701;28;46117;-76
2022/12/11 02:23:20;;;;;;;;;16.00;14.50;;;;;3.19;62.49;101086.06;2440583;28;45505;-76
2022/12/11 02:25:04;;;;;;;;;18.25;14.50;;;;;3.20;62.32;101089.53;2440539;28;44997;-76
2022/12/11 02:26:23;;;;;;;;;22.00;15.00;;;;;3.18;62.34;101089.53;2447800;28;46565;-76
2022/12/11 02:27:40;;;;;;;;;20.50;16.75;;;;;3.16;62.57;101091.25;2446810;28;44574;-76
2022/12/11 02:28:57;;;;;;;;;22.00;16.75;;;;;3.15;62.71;101090.41;2437665;28;48067;-76
2022/12/11 02:30:12;;;;;;;;;17.75;15.25;;;;;3.16;62.27;101086.06;2450235;27;45569;-76
2022/12/11 02:31:41;;;;;;;;;19.50;19.00;;;;;3.17;62.82;101087.78;2453665;27;46671;-76
2022/12/11 02:32:58;;;;;;;;;21.25;16.00;;;;;3.17;62.41;101085.19;2431037;28;45252;-76
2022/12/11 02:34:22;;;;;;;;;24.75;19.00;;;;;3.18;62.86;101086.94;2439691;28;45357;-76
2022/12/11 02:35:37;;;;;;;;;19.25;16.50;;;;;3.17;62.33;101079.13;2441513;28;45220;-75
2022/12/11 02:36:53;;;;;;;;;25.00;22.50;;;;;3.17;62.70;101076.53;2440560;28;47454;-76
2022/12/11 02:38:09;;;;;;;;;25.25;17.25;;;;;3.16;62.42;101078.28;2440798;28;45322;-75
2022/12/11 02:39:22;;;;;;;;;24.00;16.00;;;;;3.17;62.46;101074.81;2440518;28;47103;-75
2022/12/11 02:40:38;;;;;;;;;25.50;15.25;;;;;3.17;62.38;101077.41;2439596;28;44767;-76
2022/12/11 02:41:50;;;;;;;;;24.00;15.25;;;;;3.18;62.66;101071.34;2440372;28;46815;-76
2022/12/11 02:43:05;;;;;;;;;20.50;15.50;;;;;3.19;63.20;101078.25;2440885;28;44646;-76
2022/12/11 02:44:20;;;;;;;;;18.25;16.75;;;;;3.19;62.23;101069.59;2440771;28;45521;-76
2022/12/11 02:45:32;;;;;;;;;22.25;14.25;;;;;3.19;63.09;101073.06;2440646;28;44644;-76
2022/12/11 02:46:44;;;;;;;;;24.00;20.00;;;;;3.18;62.98;101071.34;2440889;28;46661;-76
2022/12/11 02:47:57;;;;;;;;;17.00;15.25;;;;;3.18;62.96;101065.28;2440819;28;45223;-76
2022/12/11 02:49:11;;;;;;;;;23.00;16.50;;;;;3.21;63.24;101073.09;2446851;28;47159;-75
2022/12/11 02:50:22;;;;;;;;;21.75;15.50;;;;;3.20;63.25;101073.94;2444010;28;45464;-76
2022/12/11 02:51:38;;;;;;;;;16.00;13.50;;;;;3.20;62.77;101068.75;2460244;27;47868;-76
2022/12/11 02:52:52;;;;;;;;;16.75;10.25;;;;;3.17;62.22;101069.59;2448038;27;45353;-76
2022/12/11 02:54:07;;;;;;;;;18.25;11.50;;;;;3.17;62.61;101066.13;2440416;28;47415;-76
2022/12/11 02:55:19;;;;;;;;;20.25;18.00;;;;;3.17;62.61;101076.53;2440870;28;45380;-75
2022/12/11 02:56:35;;;;;;;;;20.00;14.25;;;;;3.15;62.85;101073.94;2440479;28;46664;-75
2022/12/11 02:58:06;;;;;;;;;17.75;11.75;;;;;3.16;62.48;101075.69;2441200;28;45307;-75
2022/12/11 02:59:39;;;;;;;;;11.00;7.50;;;;;3.15;62.54;101073.94;2431483;28;45355;-76
2022/12/11 03:00:50;;;;;;;;;13.75;12.25;;;;;3.13;62.09;101073.94;2434989;28;44848;-75
2022/12/11 03:02:01;;;;;;;;;18.00;14.00;;;;;3.12;62.80;101074.78;2440385;28;46364;-75
2022/12/11 03:03:12;;;;;;;;;20.75;15.00;;;;;3.11;62.45;101078.22;2440357;28;45200;-75
2022/12/11 03:04:23;;;;;;;;;18.75;13.75;;;;;3.09;62.32;101068.69;2440472;28;45526;-75
2022/12/11 03:05:34;;;;;;;;;15.50;12.50;;;;;3.08;62.20;101072.19;2441440;28;45179;-75
2022/12/11 03:06:49;;;;;;;;;15.75;14.50;;;;;3.06;62.17;101066.97;2441003;28;45604;-75
2022/12/11 03:08:01;;;;;;;;;10.25;10.25;;;;;3.05;62.69;101075.63;2439925;28;44794;-76
2022/12/11 03:09:11;;;;;;;;;16.00;14.00;;;;;3.04;62.24;101058.28;2432816;28;47678;-75
2022/12/11 03:10:22;;;;;;;;;19.25;14.00;;;;;3.04;62.37;101063.50;2439587;28;45312;-76
2022/12/11 03:11:32;;;;;;;;;22.50;13.50;;;;;3.05;62.52;101073.03;2442964;28;46367;-76
2022/12/11 03:12:47;;;;;;;;;17.00;13.25;;;;;3.04;62.50;101066.97;2440210;28;44610;-75
2022/12/11 03:13:58;;;;;;;;;20.00;12.50;;;;;3.07;63.07;101066.09;2440585;28;45417;-75
2022/12/11 03:15:13;;;;;;;;;17.75;15.00;;;;;3.08;62.26;101062.66;2441084;28;45322;-76
2022/12/11 03:16:38;;;;;;;;;17.00;15.75;;;;;3.09;62.63;101072.16;2439863;28;46359;-76
2022/12/11 03:18:20;;;;;;;;;21.00;15.50;;;;;3.10;62.94;101066.13;2440575;28;45306;-76
2022/12/11 03:19:41;;;;;;;;;23.00;14.75;;;;;3.11;62.78;101056.59;2448557;27;48726;-75
2022/12/11 03:21:18;;;;;;;;;19.50;14.75;;;;;3.10;62.47;101063.53;2445861;28;44686;-76
2022/12/11 03:22:46;;;;;;;;;19.00;14.75;;;;;3.12;63.21;101059.19;2435259;28;46506;-76
2022/12/11 03:24:04;;;;;;;;;17.75;13.00;;;;;3.14;63.02;101062.66;2441188;28;44637;-76
2022/12/11 03:25:17;;;;;;;;;20.50;17.25;;;;;3.15;63.11;101058.34;2441143;28;46634;-76
2022/12/11 03:26:31;;;;;;;;;18.75;14.50;;;;;3.14;62.46;101060.06;2440610;28;45176;-76
2022/12/11 03:27:58;;;;;;;;;16.00;14.00;;;;;3.14;62.74;101057.47;2440968;28;45797;-75
2022/12/11 03:29:17;;;;;;;;;14.50;13.25;;;;;3.16;62.89;101057.50;2440942;28;44692;-76
2022/12/11 03:30:31;;;;;;;;;13.50;12.25;;;;;3.16;62.97;101060.09;2440006;28;45582;-75
2022/12/11 03:32:08;;;;;;;;;20.75;14.25;;;;;3.15;63.01;101061.81;2439911;28;45324;-76
2022/12/11 03:33:29;;;;;;;;;14.25;13.75;;;;;3.15;62.22;101056.63;2432517;28;45618;-76
2022/12/11 03:34:58;;;;;;;;;18.50;13.75;;;;;3.17;62.82;101058.34;2439932;28;47143;-76
2022/12/11 03:36:13;;;;;;;;;16.25;13.25;;;;;3.15;62.77;101055.75;2439867;28;45416;-75
2022/12/11 03:37:27;;;;;;;;;13.75;10.50;;;;;3.14;62.49;101057.47;2440068;28;45209;-75
2022/12/11 03:38:41;;;;;;;;;16.25;14.50;;;;;3.13;62.08;101053.16;2439261;28;46307;-76
2022/12/11 03:39:57;;;;;;;;;19.75;15.50;;;;;3.13;62.95;101060.06;2440963;28;45396;-76
2022/12/11 03:41:10;;;;;;;;;13.00;10.50;;;;;3.11;62.54;101060.03;2440855;28;45716;-76
2022/12/11 03:42:23;;;;;;;;;11.75;10.00;;;;;3.12;62.08;101066.13;2441154;28;45232;-76
2022/12/11 03:43:35;;;;;;;;;14.50;11.75;;;;;3.10;62.09;101057.47;2440459;28;45480;-76
2022/12/11 03:44:49;;;;;;;;;10.25;8.75;;;;;3.11;62.38;101057.44;2440249;28;45657;-76
2022/12/11 03:46:00;;;;;;;;;12.00;11.00;;;;;3.10;62.15;101065.25;2440078;28;48275;-75
2022/12/11 03:47:14;;;;;;;;;14.50;12.50;;;;;3.10;61.99;101062.66;2440415;28;45268;-76
2022/12/11 03:48:30;;;;;;;;;15.25;10.75;;;;;3.06;61.85;101069.59;2448885;27;47018;-76
2022/12/11 03:49:43;;;;;;;;;16.75;11.50;;;;;3.03;62.15;101065.25;2438881;28;45266;-76
2022/12/11 03:50:54;;;;;;;;;17.50;12.00;;;;;3.01;62.42;101058.31;2440638;28;45575;-76
2022/12/11 03:52:08;;;;;;;;;12.50;11.25;;;;;2.98;62.12;101064.34;2441001;28;45250;-76
2022/12/11 03:53:20;;;;;;;;;13.75;12.00;;;;;2.97;61.64;101064.31;2440566;28;45938;-76
2022/12/11 03:54:32;;;;;;;;;13.50;9.75;;;;;2.96;62.09;101062.59;2439612;28;45342;-76
2022/12/11 03:55:44;;;;;;;;;12.25;10.25;;;;;2.95;61.83;101064.34;2439649;28;46414;-75
2022/12/11 03:56:59;;;;;;;;;17.75;13.75;;;;;2.92;61.73;101062.59;2440178;28;45372;-76
2022/12/11 03:58:09;;;;;;;;;11.50;9.00;;;;;2.90;61.86;101064.31;2440637;28;46691;-75
2022/12/11 03:59:19;;;;;;;;;14.50;12.00;;;;;2.86;61.61;101061.69;2440890;28;45377;-76
2022/12/11 04:00:30;;;;;;;;;14.00;11.50;;;;;2.80;62.30;101057.34;2440834;28;46720;-75
2022/12/11 04:01:41;;;;;;;;;19.50;11.75;;;;;2.75;62.02;101059.03;2450843;28;45236;-76
2022/12/11 04:04:20;;;;;;;;;16.00;11.75;;;;;2.69;62.93;101065.94;2439272;28;45456;-75
2022/12/11 04:05:31;;;;;;;;;15.50;12.75;;;;;2.64;61.95;101059.84;2440805;28;46268;-76
2022/12/11 04:06:41;;;;;;;;;12.00;8.25;;;;;2.62;62.22;101056.38;2440038;28;45184;-76
2022/12/11 04:07:51;;;;;;;;;15.25;13.25;;;;;2.59;62.40;101057.22;2439172;28;46587;-76
2022/12/11 04:09:02;;;;;;;;;13.00;12.75;;;;;2.60;62.27;101060.69;2440996;28;45228;-75
2022/12/11 04:10:12;;;;;;;;;11.00;9.00;;;;;2.61;63.20;101056.38;2440670;28;46365;-76
2022/12/11 04:11:35;;;;;;;;;13.75;11.75;;;;;2.63;62.95;101058.13;2445950;28;45277;-76
2022/12/11 04:12:45;;;;;;;;;11.50;11.00;;;;;2.63;62.70;101055.53;2447094;28;46631;-76
2022/12/11 04:15:24;;;;;;;;;15.50;13.50;;;;;2.59;62.39;101046.00;2440371;28;45280;-75
2022/12/11 04:16:35;;;;;;;;;13.75;12.25;;;;;2.57;62.45;101039.91;2440030;28;45294;-76
2022/12/11 04:25:12;;;;;;;;;14.75;12.75;;;;;2.54;63.40;101043.38;2442301;28;45158;-76
2022/12/11 04:26:22;;;;;;;;;14.50;13.00;;;;;2.53;62.96;101039.03;2442228;28;45444;-76
2022/12/11 04:27:47;;;;;;;;;15.50;12.00;;;;;2.55;62.89;101049.41;2450694;27;44968;-76
2022/12/11 04:28:58;;;;;;;;;14.75;12.00;;;;;2.55;63.47;101044.22;2437435;28;46701;-76
2022/12/11 04:30:12;;;;;;;;;19.00;14.00;;;;;2.57;62.79;101047.69;2437358;28;45337;-76
2022/12/11 04:31:23;;;;;;;;;14.00;11.00;;;;;2.55;63.54;101049.41;2442096;28;46465;-76
2022/12/11 04:32:33;;;;;;;;;15.50;11.75;;;;;2.55;62.36;101041.63;2445552;28;44585;-76
2022/12/11 04:33:44;;;;;;;;;12.25;11.50;;;;;2.54;62.34;101045.09;2448650;28;45499;-76
2022/12/11 04:34:54;;;;;;;;;15.50;12.50;;;;;2.52;62.99;101039.03;2452162;27;45286;-76
2022/12/11 04:36:06;;;;;;;;;12.50;10.50;;;;;2.51;62.56;101032.97;2443443;27;45486;-76
2022/12/11 04:37:16;;;;;;;;;12.75;11.75;;;;;2.50;63.32;101036.41;2441119;28;44819;-76
2022/12/11 04:38:27;;;;;;;;;18.25;13.25;;;;;2.47;63.24;101041.59;2442174;28;45435;-76
2022/12/11 04:39:37;;;;;;;;;15.25;13.50;;;;;2.44;62.84;101039.88;2441884;28;45207;-76
2022/12/11 04:40:47;;;;;;;;;12.50;12.00;;;;;2.40;62.01;101032.03;2461093;27;47058;-75
2022/12/11 04:41:58;;;;;;;;;15.00;12.25;;;;;2.34;62.71;101043.25;2455596;27;45747;-76
2022/12/11 04:43:08;;;;;;;;;15.50;11.00;;;;;2.32;62.83;101039.78;2442205;28;46264;-76
2022/12/11 04:44:18;;;;;;;;;14.00;10.25;;;;;2.30;63.19;101041.47;2450098;27;45638;-75
2022/12/11 04:45:29;;;;;;;;;17.75;12.25;;;;;2.29;62.99;101044.94;2448422;27;45483;-76
2022/12/11 04:46:39;;;;;;;;;16.75;13.00;;;;;2.28;63.13;101038.88;2441379;28;45326;-76
2022/12/11 04:47:49;;;;;;;;;13.00;12.75;;;;;2.29;62.97;101031.97;2440553;28;45510;-76
2022/12/11 04:49:00;;;;;;;;;16.25;12.25;;;;;2.28;63.58;101032.81;2450126;28;45275;-76
2022/12/11 04:50:13;;;;;;;;;16.00;12.75;;;;;2.30;62.97;101036.28;2447640;27;45593;-76
2022/12/11 04:51:24;;;;;;;;;18.00;15.00;;;;;2.27;63.11;101026.78;2441994;28;44626;-76
2022/12/11 04:52:34;;;;;;;;;21.75;12.25;;;;;2.25;63.28;101031.97;2441112;28;47130;-76
2022/12/11 04:53:45;;;;;;;;;12.50;10.75;;;;;2.24;62.72;101032.84;2454144;27;45242;-76
2022/12/11 04:54:55;;;;;;;;;11.25;5.75;;;;;2.25;63.91;101034.53;2447556;27;46835;-76
2022/12/11 04:56:08;;;;;;;;;14.00;9.25;;;;;2.28;63.70;101022.44;2441552;28;45508;-75
2022/12/11 04:57:20;;;;;;;;;17.50;13.50;;;;;2.29;63.25;101019.88;2451112;28;47559;-76
2022/12/11 04:58:30;;;;;;;;;13.75;12.00;;;;;2.30;63.57;101018.13;2448538;28;45337;-76
2022/12/11 04:59:41;;;;;;;;;15.25;14.00;;;;;2.32;63.93;101016.44;2441007;28;45514;-76
2022/12/11 05:00:52;;;;;;;;;22.25;16.25;;;;;2.33;63.23;101006.06;2442228;28;45177;-75
2022/12/11 05:02:03;;;;;;;;;7.75;7.75;;;;;2.36;63.06;101005.22;2442096;28;45336;-76
2022/12/11 05:03:14;;;;;;;;;17.00;13.00;;;;;2.35;62.91;101008.66;2441928;28;45229;-76
2022/12/11 05:04:24;;;;;;;;;14.50;12.50;;;;;2.38;63.38;101010.41;2440082;28;46334;-76
2022/12/11 05:05:35;;;;;;;;;16.25;11.75;;;;;2.38;64.19;101011.28;2441891;28;45176;-76
2022/12/11 05:06:48;;;;;;;;;17.50;12.00;;;;;2.41;63.94;101010.44;2441914;28;45409;-75
2022/12/11 05:07:59;;;;;;;;;13.50;12.00;;;;;2.41;62.84;101019.09;2440391;28;45215;-76
2022/12/11 05:09:11;;;;;;;;;14.50;11.00;;;;;2.43;63.62;101014.78;2441390;28;46752;-76
2022/12/11 05:10:21;;;;;;;;;11.25;9.00;;;;;2.44;63.40;101019.13;2441286;28;45229;-75
2022/12/11 05:11:32;;;;;;;;;17.25;12.00;;;;;2.45;62.97;101015.63;2443648;28;46385;-75
2022/12/11 05:12:42;;;;;;;;;13.50;12.00;;;;;2.45;62.96;101010.44;2441192;28;45221;-75
2022/12/11 05:13:52;;;;;;;;;14.25;11.00;;;;;2.47;63.03;101019.09;2441154;28;46722;-75
2022/12/11 05:15:03;;;;;;;;;16.50;14.50;;;;;2.50;63.38;101017.38;2440792;28;45536;-76
2022/12/11 05:16:15;;;;;;;;;13.50;8.75;;;;;2.51;63.19;101012.22;2441761;28;46283;-76
2022/12/11 05:17:26;;;;;;;;;12.25;10.50;;;;;2.52;62.60;101015.69;2442056;28;45357;-75
2022/12/11 05:18:36;;;;;;;;;14.25;13.50;;;;;2.52;62.97;101008.75;2441867;28;45305;-76
2022/12/11 05:19:49;;;;;;;;;14.25;11.75;;;;;2.52;62.94;101002.72;2440830;28;44776;-75
2022/12/11 05:21:04;;;;;;;;;12.00;9.00;;;;;2.53;62.77;101013.09;2441180;28;45380;-76
2022/12/11 05:22:16;;;;;;;;;15.00;12.50;;;;;2.55;63.30;101007.91;2440978;28;45231;-76
2022/12/11 05:23:27;;;;;;;;;6.00;4.00;;;;;2.55;63.21;101013.09;2441201;28;45364;-76
2022/12/11 05:24:37;;;;;;;;;17.50;15.50;;;;;2.55;62.37;101005.31;2440155;28;45357;-76
2022/12/11 05:26:10;;;;;;;;;17.25;12.25;;;;;2.56;62.70;101002.72;2433879;28;47028;-76
2022/12/11 05:27:20;;;;;;;;;15.00;11.25;;;;;2.57;62.98;101003.56;2441615;28;44713;-76
2022/12/11 05:28:33;;;;;;;;;17.25;11.75;;;;;2.57;63.37;101003.56;2441736;28;45708;-76
2022/12/11 05:29:43;;;;;;;;;11.75;8.75;;;;;2.58;62.73;101000.13;2441888;28;44598;-76
2022/12/11 05:30:58;;;;;;;;;17.50;12.25;;;;;2.57;63.00;101004.44;2441400;28;45443;-76
2022/12/11 05:32:09;;;;;;;;;15.75;12.50;;;;;2.56;62.38;101002.72;2441103;28;44626;-76
2022/12/11 05:33:19;;;;;;;;;17.50;12.75;;;;;2.58;63.10;101010.50;2441541;28;45294;-76
2022/12/11 05:34:29;;;;;;;;;13.50;12.00;;;;;2.58;62.50;101006.19;2440919;28;45243;-76
2022/12/11 05:35:46;;;;;;;;;14.00;11.75;;;;;2.59;62.99;101004.47;2441125;28;45426;-76
2022/12/11 05:36:56;;;;;;;;;14.50;14.25;;;;;2.58;63.23;101008.78;2460524;27;45380;-75
2022/12/11 05:38:07;;;;;;;;;13.75;12.25;;;;;2.59;62.97;101009.66;2455437;27;46258;-75
2022/12/11 05:39:17;;;;;;;;;22.75;16.50;;;;;2.59;63.00;101007.91;2441033;28;44703;-76
2022/12/11 05:40:28;;;;;;;;;19.75;12.75;;;;;2.61;62.58;101014.84;2441084;28;45396;-76
2022/12/11 05:41:39;;;;;;;;;23.75;18.00;;;;;2.61;62.65;101015.72;2441413;28;45488;-76
2022/12/11 05:42:49;;;;;;;;;24.25;14.25;;;;;2.58;62.41;101013.09;2441543;28;45641;-75
2022/12/11 05:43:59;;;;;;;;;19.00;17.00;;;;;2.56;62.31;101007.06;2440763;28;45511;-75
2022/12/11 05:45:10;;;;;;;;;17.00;16.75;;;;;2.52;63.03;101013.94;2440348;28;46543;-76
2022/12/11 05:46:25;;;;;;;;;19.50;15.50;;;;;2.47;61.73;101013.03;2439829;28;46038;-76
2022/12/11 05:47:36;;;;;;;;;24.75;18.00;;;;;2.42;62.97;101007.84;2440252;28;45581;-76